createdAt,value
2022-08-09T00:02:31.345Z,24.96
2022-08-09T00:05:00.837Z,24.97
2022-08-09T00:07:45.276Z,25.00
2022-08-09T00:10:14.409Z,24.96
2022-08-09T00:12:52.318Z,24.97
2022-08-09T00:15:35.397Z,24.96
2022-08-09T00:18:11.994Z,24.96
2022-08-09T00:20:42.202Z,24.92
2022-08-09T00:23:56.241Z,24.94
2022-08-09T00:26:05.191Z,24.89
2022-08-09T00:28:32.170Z,24.91
2022-08-09T00:31:01.344Z,24.88
2022-08-09T00:33:51.228Z,24.92
2022-08-09T00:36:18.485Z,24.85
2022-08-09T00:38:45.353Z,24.86
2022-08-09T00:44:11.824Z,24.84
2022-08-09T00:44:16.261Z,24.89
2022-08-09T00:46:55.869Z,24.85
2022-08-09T00:49:28.211Z,24.76
2022-08-09T00:51:57.355Z,24.81
2022-08-09T00:54:31.376Z,24.83
2022-08-09T00:57:02.066Z,24.78
2022-08-09T00:59:41.253Z,24.73
2022-08-09T01:02:16.056Z,24.71
2022-08-09T01:05:02.617Z,24.76
2022-08-09T01:08:01.143Z,24.74
2022-08-09T01:10:37.284Z,24.77
2022-08-09T01:13:18.844Z,24.72
2022-08-09T01:15:52.098Z,24.71
2022-08-09T01:18:29.567Z,24.70
2022-08-09T01:21:16.204Z,24.72
2022-08-09T01:24:01.748Z,24.67
2022-08-09T01:26:33.300Z,24.65
2022-08-09T01:29:02.046Z,24.58
2022-08-09T01:32:30.308Z,24.61
2022-08-09T01:34:18.802Z,24.57
2022-08-09T01:36:49.042Z,24.66
2022-08-09T01:39:16.767Z,24.57
2022-08-09T01:41:53.616Z,24.61
2022-08-09T01:44:28.237Z,24.52
2022-08-09T01:46:54.914Z,24.59
2022-08-09T01:49:24.192Z,24.49
2022-08-09T01:52:07.429Z,24.52
2022-08-09T01:54:40.281Z,24.52
2022-08-09T01:57:14.935Z,24.51
2022-08-09T01:59:51.410Z,24.43
2022-08-09T02:02:20.962Z,24.45
2022-08-09T02:04:49.307Z,24.43
2022-08-09T02:08:35.815Z,24.43
2022-08-09T02:10:11.425Z,24.48
2022-08-09T02:12:39.328Z,24.43
2022-08-09T02:15:07.858Z,24.40
2022-08-09T02:18:01.206Z,24.37
2022-08-09T02:20:26.421Z,24.43
2022-08-09T02:23:07.163Z,24.37
2022-08-09T02:25:42.335Z,24.37
2022-08-09T02:28:19.398Z,24.41
2022-08-09T02:30:49.883Z,24.42
2022-08-09T02:33:58.474Z,24.41
2022-08-09T02:36:21.050Z,24.34
2022-08-09T02:38:51.178Z,24.33
2022-08-09T02:41:22.871Z,24.33
2022-08-09T02:43:54.837Z,24.35
2022-08-09T02:46:24.590Z,24.33
2022-08-09T02:48:51.659Z,24.31
2022-08-09T02:51:18.783Z,24.33
2022-08-09T02:53:56.643Z,24.27
2022-08-09T02:56:28.711Z,24.33
2022-08-09T02:58:55.949Z,24.24
2022-08-09T03:01:29.118Z,24.30
2022-08-09T03:04:17.351Z,24.28
2022-08-09T03:06:46.468Z,24.25
2022-08-09T03:09:17.413Z,24.31
2022-08-09T03:12:06.054Z,24.27
2022-08-09T03:14:32.178Z,24.20
2022-08-09T03:17:02.314Z,24.24
2022-08-09T03:19:59.115Z,24.26
2022-08-09T03:22:25.536Z,24.13
2022-08-09T03:25:05.706Z,24.13
2022-08-09T03:27:44.794Z,24.09
2022-08-09T03:30:29.670Z,24.12
2022-08-09T03:33:12.953Z,24.09
2022-08-09T03:36:13.414Z,24.14
2022-08-09T03:38:32.862Z,24.11
2022-08-09T03:40:59.682Z,24.13
2022-08-09T03:43:31.633Z,24.10
2022-08-09T03:46:05.449Z,24.07
2022-08-09T03:48:51.380Z,24.05
2022-08-09T03:51:55.587Z,24.02
2022-08-09T03:54:11.029Z,24.00
2022-08-09T03:56:38.961Z,24.00
2022-08-09T03:59:13.841Z,23.99
2022-08-09T04:01:49.180Z,23.97
2022-08-09T04:04:16.662Z,24.01
2022-08-09T04:06:48.798Z,23.99
2022-08-09T04:09:44.339Z,24.00
2022-08-09T04:12:12.050Z,24.02
2022-08-09T04:15:02.061Z,24.01
2022-08-09T04:17:39.329Z,23.96
2022-08-09T04:20:10.234Z,23.93
2022-08-09T04:22:37.455Z,23.88
2022-08-09T04:25:08.684Z,23.88
2022-08-09T04:27:41.070Z,23.85
2022-08-09T04:30:14.073Z,23.88
2022-08-09T04:32:41.153Z,23.89
2022-08-09T04:35:13.983Z,23.85
2022-08-09T04:37:46.498Z,23.87
2022-08-09T04:40:19.263Z,23.85
2022-08-09T04:42:55.555Z,23.93
2022-08-09T04:45:23.700Z,23.90
2022-08-09T04:48:01.132Z,23.86
2022-08-09T04:50:35.007Z,23.85
2022-08-09T04:53:12.965Z,23.85
2022-08-09T04:55:58.433Z,23.79
2022-08-09T04:58:29.888Z,23.82
2022-08-09T05:00:59.175Z,23.79
2022-08-09T05:03:41.201Z,23.78
2022-08-09T05:06:22.061Z,23.78
2022-08-09T05:09:00.474Z,23.79
2022-08-09T05:11:30.463Z,23.74
2022-08-09T05:13:59.394Z,23.75
2022-08-09T05:16:28.558Z,23.76
2022-08-09T05:19:00.305Z,23.74
2022-08-09T05:21:30.038Z,23.71
2022-08-09T05:24:01.659Z,23.69
2022-08-09T05:26:33.922Z,23.68
2022-08-09T05:29:17.389Z,23.70
2022-08-09T05:31:56.217Z,23.68
2022-08-09T05:34:23.181Z,23.62
2022-08-09T05:36:57.618Z,23.72
2022-08-09T05:39:29.499Z,23.67
2022-08-09T05:42:04.533Z,23.60
2022-08-09T05:44:33.027Z,23.63
2022-08-09T05:47:05.050Z,23.54
2022-08-09T05:50:14.842Z,23.65
2022-08-09T05:52:19.908Z,23.67
2022-08-09T05:54:46.591Z,23.63
2022-08-09T05:57:17.615Z,23.74
2022-08-09T05:59:46.188Z,23.70
2022-08-09T06:02:16.924Z,23.69
2022-08-09T06:04:46.102Z,23.68
2022-08-09T06:07:21.677Z,23.72
2022-08-09T06:10:01.500Z,23.76
2022-08-09T06:12:29.936Z,23.75
2022-08-09T06:15:01.051Z,23.77
2022-08-09T06:17:40.329Z,23.79
2022-08-09T06:20:07.983Z,23.79
2022-08-09T06:22:35.315Z,23.79
2022-08-09T06:25:02.161Z,23.78
2022-08-09T06:27:41.404Z,23.83
2022-08-09T06:30:10.217Z,23.85
2022-08-09T06:32:58.753Z,23.94
2022-08-09T06:35:55.824Z,23.92
2022-08-09T06:38:10.177Z,23.99
2022-08-09T06:40:38.089Z,24.04
2022-08-09T06:43:07.655Z,24.06
2022-08-09T06:46:04.677Z,24.07
2022-08-09T06:48:30.416Z,24.12
2022-08-09T06:51:01.006Z,24.15
2022-08-09T06:53:38.172Z,24.12
2022-08-09T06:56:06.345Z,24.15
2022-08-09T07:00:46.372Z,24.17
2022-08-09T07:01:21.462Z,24.21
2022-08-09T07:03:52.226Z,24.23
2022-08-09T07:06:20.840Z,24.27
2022-08-09T07:08:49.667Z,24.25
2022-08-09T07:11:23.356Z,24.27
2022-08-09T07:14:05.603Z,24.29
2022-08-09T07:16:41.668Z,24.27
2022-08-09T07:19:15.127Z,24.31
2022-08-09T07:21:55.216Z,24.28
2022-08-09T07:24:22.740Z,24.31
2022-08-09T07:27:00.568Z,24.36
2022-08-09T07:29:30.719Z,24.36
2022-08-09T07:32:05.275Z,24.39
2022-08-09T07:34:32.414Z,24.40
2022-08-09T07:37:02.516Z,24.47
2022-08-09T07:39:41.412Z,24.43
2022-08-09T07:42:09.424Z,24.42
2022-08-09T07:44:50.881Z,24.51
2022-08-09T07:47:18.885Z,24.49
2022-08-09T07:50:04.788Z,24.43
2022-08-09T07:52:32.795Z,24.49
2022-08-09T07:54:59.555Z,24.57
2022-08-09T07:57:35.595Z,24.58
2022-08-09T08:00:02.894Z,24.59
2022-08-09T08:02:30.560Z,24.62
2022-08-09T08:04:57.275Z,24.61
2022-08-09T08:08:43.881Z,24.56
2022-08-09T08:10:12.034Z,24.63
2022-08-09T08:12:43.263Z,24.60
2022-08-09T08:15:16.632Z,24.61
2022-08-09T08:17:55.253Z,24.63
2022-08-09T08:20:30.817Z,24.65
2022-08-09T08:23:16.376Z,24.65
2022-08-09T08:25:48.066Z,24.69
2022-08-09T08:28:18.273Z,24.70
2022-08-09T08:30:52.505Z,24.68
2022-08-09T08:33:23.107Z,24.72
2022-08-09T08:35:58.514Z,24.74
2022-08-09T08:38:28.414Z,24.75
2022-08-09T08:40:56.644Z,24.79
2022-08-09T08:43:24.057Z,24.85
2022-08-09T08:46:03.750Z,24.92
2022-08-09T08:48:36.733Z,24.93
2022-08-09T08:51:04.252Z,24.94
2022-08-09T08:53:36.815Z,24.94
2022-08-09T08:56:05.015Z,24.96
2022-08-09T08:58:33.133Z,24.99
2022-08-09T09:01:08.864Z,25.02
2022-08-09T09:03:46.043Z,25.07
2022-08-09T09:06:18.368Z,25.10
2022-08-09T09:08:45.682Z,25.12
2022-08-09T09:11:19.968Z,25.15
2022-08-09T09:13:56.743Z,25.19
2022-08-09T09:16:32.438Z,25.24
2022-08-09T09:22:07.967Z,25.35
2022-08-09T09:24:43.489Z,25.38
2022-08-09T09:27:47.223Z,25.37
2022-08-09T09:30:13.828Z,25.44
2022-08-09T09:33:15.253Z,25.49
2022-08-09T09:36:02.884Z,25.50
2022-08-09T09:38:48.526Z,25.52
2022-08-09T09:41:28.054Z,25.54
2022-08-09T09:44:12.645Z,25.57
2022-08-09T09:46:50.872Z,25.59
2022-08-09T09:49:23.562Z,25.64
2022-08-09T09:52:35.576Z,25.67
2022-08-09T09:55:16.175Z,25.71
2022-08-09T09:58:19.701Z,25.71
2022-08-09T10:00:55.858Z,25.73
2022-08-09T10:03:56.434Z,25.75
2022-08-09T10:06:47.232Z,25.78
2022-08-09T10:09:23.234Z,25.77
2022-08-09T10:12:14.831Z,25.70
2022-08-09T10:14:48.671Z,25.74
2022-08-09T10:17:39.931Z,25.79
2022-08-09T10:20:27.617Z,25.82
2022-08-09T10:23:20.284Z,25.83
2022-08-09T10:26:06.307Z,25.82
2022-08-09T10:28:35.734Z,25.85
2022-08-09T10:34:18.917Z,25.86
2022-08-09T10:36:37.173Z,25.90
2022-08-09T10:39:06.042Z,25.91
2022-08-09T10:41:42.908Z,25.94
2022-08-09T10:44:10.093Z,25.91
2022-08-09T10:47:00.696Z,25.99
2022-08-09T10:49:51.401Z,26.00
2022-08-09T10:52:34.743Z,25.99
2022-08-09T10:55:23.048Z,25.99
2022-08-09T10:57:52.061Z,26.04
2022-08-09T11:00:31.246Z,26.07
2022-08-09T11:03:14.278Z,26.12
2022-08-09T11:06:18.688Z,26.13
2022-08-09T11:08:51.299Z,26.14
2022-08-09T11:11:21.491Z,26.18
2022-08-09T11:14:32.240Z,26.18
2022-08-09T11:16:59.020Z,26.24
2022-08-09T11:20:10.760Z,26.27
2022-08-09T11:22:47.270Z,26.28
2022-08-09T11:25:47.319Z,26.28
2022-08-09T11:28:38.300Z,26.29
2022-08-09T11:31:49.202Z,26.38
2022-08-09T11:34:43.418Z,26.36
2022-08-09T11:37:18.194Z,26.40
2022-08-09T11:40:02.842Z,26.43
2022-08-09T11:42:47.154Z,26.46
2022-08-09T11:45:22.903Z,26.44
2022-08-09T11:47:57.911Z,26.48
2022-08-09T11:50:55.663Z,26.46
2022-08-09T11:54:00.007Z,26.56
2022-08-09T11:56:41.610Z,26.62
2022-08-09T11:59:11.639Z,26.63
2022-08-09T12:02:16.581Z,26.60
2022-08-09T12:04:32.235Z,26.64
2022-08-09T12:07:04.413Z,26.67
2022-08-09T12:09:35.497Z,26.67
2022-08-09T12:12:12.298Z,26.63
2022-08-09T12:15:04.227Z,26.73
2022-08-09T12:17:34.660Z,26.75
2022-08-09T12:20:24.517Z,26.78
2022-08-09T12:22:55.785Z,26.83
2022-08-09T12:25:37.685Z,26.79
2022-08-09T12:28:59.248Z,26.80
2022-08-09T12:31:57.935Z,26.81
2022-08-09T12:34:13.599Z,26.82
2022-08-09T12:36:58.844Z,26.87
2022-08-09T12:39:37.785Z,26.93
2022-08-09T12:42:09.456Z,26.93
2022-08-09T12:44:38.128Z,26.96
2022-08-09T12:47:08.989Z,26.92
2022-08-09T12:49:39.472Z,26.96
2022-08-09T12:52:17.894Z,26.96
2022-08-09T12:55:00.607Z,27.02
2022-08-09T12:57:46.579Z,27.05
2022-08-09T13:00:18.405Z,27.06
2022-08-09T13:02:53.272Z,27.16
2022-08-09T13:05:23.021Z,27.09
2022-08-09T13:08:15.451Z,27.14
2022-08-09T13:10:52.314Z,27.14
2022-08-09T13:13:37.989Z,27.17
2022-08-09T13:16:20.950Z,27.17
2022-08-09T13:18:53.749Z,27.24
2022-08-09T13:22:37.020Z,27.23
2022-08-09T13:24:44.433Z,27.23
2022-08-09T13:27:06.059Z,27.28
2022-08-09T13:30:03.247Z,27.30
2022-08-09T13:32:35.326Z,27.26
2022-08-09T13:35:03.721Z,27.26
2022-08-09T13:37:52.352Z,27.30
2022-08-09T13:41:55.279Z,27.28
2022-08-09T13:43:05.106Z,27.33
2022-08-09T13:46:42.245Z,27.33
2022-08-09T13:48:22.724Z,27.37
2022-08-09T13:50:51.303Z,27.37
2022-08-09T13:53:18.316Z,27.37
2022-08-09T13:55:45.082Z,27.33
2022-08-09T13:58:14.533Z,27.34
2022-08-09T14:00:50.603Z,27.41
2022-08-09T14:04:02.623Z,27.34
2022-08-09T14:06:14.737Z,27.51
2022-08-09T14:08:52.163Z,27.51
2022-08-09T14:11:19.143Z,27.40
2022-08-09T14:14:22.379Z,27.51
2022-08-09T14:16:33.320Z,27.56
2022-08-09T14:19:01.581Z,27.58
2022-08-09T14:21:29.266Z,27.57
2022-08-09T14:24:01.321Z,27.61
2022-08-09T14:26:37.704Z,27.66
2022-08-09T14:29:25.687Z,27.60
2022-08-09T14:31:54.946Z,27.70
2022-08-09T14:34:31.910Z,27.70
2022-08-09T14:37:06.726Z,27.73
2022-08-09T14:39:45.817Z,27.64
2022-08-09T14:42:30.425Z,27.64
2022-08-09T14:46:40.044Z,27.70
2022-08-09T14:47:58.390Z,27.72
2022-08-09T14:50:34.636Z,27.80
2022-08-09T14:53:12.061Z,27.77
2022-08-09T14:55:50.051Z,27.76
2022-08-09T14:58:17.302Z,27.79
2022-08-09T15:00:47.907Z,27.81
2022-08-09T15:03:16.727Z,27.75
2022-08-09T15:05:51.286Z,27.70
2022-08-09T15:08:24.186Z,27.72
2022-08-09T15:11:01.393Z,27.70
2022-08-09T15:13:48.304Z,27.77
2022-08-09T15:16:18.554Z,27.67
2022-08-09T15:18:49.432Z,27.80
2022-08-09T15:21:54.855Z,27.69
2022-08-09T15:24:12.478Z,27.75
2022-08-09T15:26:45.326Z,27.77
2022-08-09T15:30:48.926Z,27.75
2022-08-09T15:32:00.647Z,27.71
2022-08-09T15:34:34.385Z,27.86
2022-08-09T15:37:04.133Z,27.79
2022-08-09T15:39:43.959Z,27.73
2022-08-09T15:42:18.862Z,27.73
2022-08-09T15:44:45.865Z,27.76
2022-08-09T15:47:14.305Z,27.67
2022-08-09T15:50:03.915Z,27.67
2022-08-09T15:52:31.951Z,27.72
2022-08-09T15:54:58.754Z,27.64
2022-08-09T15:57:35.604Z,27.65
2022-08-09T16:00:14.806Z,27.74
2022-08-09T16:02:48.069Z,27.67
2022-08-09T16:05:22.111Z,27.63
2022-08-09T16:07:49.305Z,27.60
2022-08-09T16:10:55.139Z,27.56
2022-08-09T16:13:03.750Z,27.64
2022-08-09T16:16:11.022Z,27.67
2022-08-09T16:18:17.015Z,27.56
2022-08-09T16:20:46.543Z,27.64
2022-08-09T16:23:13.333Z,27.60
2022-08-09T16:25:41.493Z,27.57
2022-08-09T16:28:12.250Z,27.66
2022-08-09T16:30:44.405Z,27.56
2022-08-09T16:33:12.031Z,27.55
2022-08-09T16:35:57.951Z,27.61
2022-08-09T16:38:25.214Z,27.58
2022-08-09T16:40:52.089Z,27.50
2022-08-09T16:43:18.823Z,27.63
2022-08-09T16:45:48.077Z,27.58
2022-08-09T16:48:41.280Z,27.62
2022-08-09T16:51:08.703Z,27.61
2022-08-09T16:54:02.504Z,27.61
2022-08-09T16:56:30.524Z,27.61
2022-08-09T16:58:58.163Z,27.57
2022-08-09T17:01:25.546Z,27.54
2022-08-09T17:03:53.007Z,27.51
2022-08-09T17:06:29.080Z,27.48
2022-08-09T17:09:17.576Z,27.49
2022-08-09T17:11:49.133Z,27.53
2022-08-09T17:14:27.178Z,27.48
2022-08-09T17:17:01.652Z,27.54
2022-08-09T17:20:06.004Z,27.56
2022-08-09T17:22:23.967Z,27.52
2022-08-09T17:24:56.130Z,27.48
2022-08-09T17:27:31.300Z,27.62
2022-08-09T17:29:57.881Z,27.53
2022-08-09T17:32:35.109Z,27.57
2022-08-09T17:35:12.141Z,27.57
2022-08-09T17:38:11.087Z,27.53
2022-08-09T17:40:29.362Z,27.59
2022-08-09T17:42:59.506Z,27.57
2022-08-09T17:46:02.005Z,27.49
2022-08-09T17:48:14.950Z,27.48
2022-08-09T17:50:55.835Z,27.48
2022-08-09T17:53:23.318Z,27.50
2022-08-09T17:55:54.219Z,27.49
2022-08-09T17:58:26.665Z,27.51
2022-08-09T18:00:54.853Z,27.45
2022-08-09T18:03:23.584Z,27.46
2022-08-09T18:05:53.186Z,27.49
2022-08-09T18:08:22.064Z,27.41
2022-08-09T18:11:00.768Z,27.46
2022-08-09T18:13:38.686Z,27.58
2022-08-09T18:16:09.195Z,27.46
2022-08-09T18:18:36.282Z,27.44
2022-08-09T18:21:21.391Z,27.45
2022-08-09T18:24:12.835Z,27.45
2022-08-09T18:26:37.891Z,27.33
2022-08-09T18:30:41.572Z,27.43
2022-08-09T18:31:56.348Z,27.49
2022-08-09T18:34:24.016Z,27.46
2022-08-09T18:36:53.358Z,27.45
2022-08-09T18:39:22.321Z,27.40
2022-08-09T18:41:53.238Z,27.49
2022-08-09T18:44:25.832Z,27.40
2022-08-09T18:46:53.231Z,27.37
2022-08-09T18:49:41.605Z,27.48
2022-08-09T18:52:11.698Z,27.46
2022-08-09T18:54:39.177Z,27.37
2022-08-09T18:57:13.429Z,27.32
2022-08-09T18:59:51.275Z,27.35
2022-08-09T19:02:19.337Z,27.42
2022-08-09T19:04:47.996Z,27.42
2022-08-09T19:07:33.027Z,27.30
2022-08-09T19:10:16.890Z,27.33
2022-08-09T19:12:44.829Z,27.32
2022-08-09T19:15:18.661Z,27.33
2022-08-09T19:17:54.944Z,27.33
2022-08-09T19:20:23.363Z,27.32
2022-08-09T19:22:54.756Z,27.29
2022-08-09T19:25:42.741Z,27.25
2022-08-09T19:28:13.395Z,27.39
2022-08-09T19:30:44.721Z,27.40
2022-08-09T19:33:19.646Z,27.33
2022-08-09T19:35:58.096Z,27.34
2022-08-09T19:38:26.803Z,27.41
2022-08-09T19:40:54.047Z,27.41
2022-08-09T19:43:58.161Z,27.40
2022-08-09T19:46:08.622Z,27.34
2022-08-09T19:49:00.403Z,27.40
2022-08-09T19:51:30.774Z,27.31
2022-08-09T19:54:01.283Z,27.34
2022-08-09T19:56:28.799Z,27.22
2022-08-09T19:59:40.490Z,27.16
2022-08-09T20:02:04.420Z,27.22
2022-08-09T20:04:37.327Z,27.23
2022-08-09T20:07:12.403Z,27.14
2022-08-09T20:09:47.803Z,27.15
2022-08-09T20:12:27.033Z,27.16
2022-08-09T20:14:58.437Z,27.12
2022-08-09T20:17:26.217Z,27.00
2022-08-09T20:19:57.964Z,27.03
2022-08-09T20:22:32.403Z,27.06
2022-08-09T20:25:04.928Z,27.09
2022-08-09T20:27:31.524Z,27.02
2022-08-09T20:29:58.874Z,27.05
2022-08-09T20:32:30.750Z,27.04
2022-08-09T20:35:01.812Z,27.01
2022-08-09T20:38:19.502Z,27.00
2022-08-09T20:40:24.851Z,27.03
2022-08-09T20:42:59.885Z,26.92
2022-08-09T20:45:59.628Z,26.90
2022-08-09T20:48:20.917Z,26.89
2022-08-09T20:50:51.163Z,26.85
2022-08-09T20:53:35.733Z,26.87
2022-08-09T20:56:20.299Z,26.87
2022-08-09T20:58:57.898Z,26.82
2022-08-09T21:01:34.463Z,26.76
2022-08-09T21:05:51.969Z,26.83
2022-08-09T21:07:12.590Z,26.72
2022-08-09T21:09:56.967Z,26.71
2022-08-09T21:15:13.783Z,26.68
2022-08-09T21:18:23.189Z,26.65
2022-08-09T21:20:29.905Z,26.63
2022-08-09T21:22:57.870Z,26.65
2022-08-09T21:25:43.965Z,26.66
2022-08-09T21:28:34.418Z,26.63
2022-08-09T21:31:17.803Z,26.61
2022-08-09T21:33:52.071Z,26.59
2022-08-09T21:36:27.880Z,26.54
2022-08-09T21:38:57.259Z,26.50
2022-08-09T21:41:59.865Z,26.51
2022-08-09T21:44:12.007Z,26.55
2022-08-09T21:46:42.371Z,26.56
2022-08-09T21:49:09.818Z,26.46
2022-08-09T21:51:43.933Z,26.43
2022-08-09T21:54:12.175Z,26.48
2022-08-09T21:56:44.559Z,26.47
2022-08-09T21:59:23.131Z,26.49
2022-08-09T22:02:00.932Z,26.42
2022-08-09T22:04:55.693Z,26.42
2022-08-09T22:07:35.085Z,26.43
2022-08-09T22:10:04.506Z,26.44
2022-08-09T22:12:31.982Z,26.44
2022-08-09T22:14:58.798Z,26.34
2022-08-09T22:17:31.871Z,26.45
2022-08-09T22:20:00.642Z,26.40
2022-08-09T22:22:29.173Z,26.40
2022-08-09T22:26:06.706Z,26.31
2022-08-09T22:27:42.554Z,26.34
2022-08-09T22:30:09.798Z,26.38
2022-08-09T22:32:37.424Z,26.36
2022-08-09T22:35:06.860Z,26.20
2022-08-09T22:38:06.956Z,26.25
2022-08-09T22:40:35.336Z,26.19
2022-08-09T22:43:16.096Z,26.16
2022-08-09T22:48:11.986Z,26.21
2022-08-09T22:48:35.968Z,26.17
2022-08-09T22:51:10.767Z,26.13
2022-08-09T22:54:02.406Z,26.17
2022-08-09T22:56:33.285Z,26.12
2022-08-09T22:59:06.110Z,26.13
2022-08-09T23:01:49.658Z,26.17
2022-08-09T23:04:16.402Z,26.15
2022-08-09T23:07:02.703Z,26.12
2022-08-09T23:09:29.399Z,26.11
2022-08-09T23:11:56.042Z,26.06
2022-08-09T23:14:23.460Z,26.03
2022-08-09T23:17:04.480Z,26.14
2022-08-09T23:19:31.066Z,26.03
2022-08-09T23:22:17.648Z,26.03
2022-08-09T23:24:44.235Z,26.08
2022-08-09T23:27:15.466Z,26.06
2022-08-09T23:29:42.249Z,26.04
2022-08-09T23:32:08.924Z,26.00
2022-08-09T23:34:35.565Z,25.94
2022-08-09T23:37:02.383Z,25.92
2022-08-09T23:39:29.016Z,25.97
2022-08-09T23:41:55.644Z,26.00
2022-08-09T23:44:22.251Z,25.98
2022-08-09T23:46:57.393Z,25.91
2022-08-09T23:49:25.236Z,25.91
2022-08-09T23:51:52.884Z,25.96
2022-08-09T23:54:19.940Z,25.90
2022-08-09T23:56:53.801Z,25.89
2022-08-09T23:59:22.778Z,25.80
